Time;durP1;ratioP1;P1;durP2;ratioP2;P2;SDS_P1;SDS_P2;PMS_P1;PMS_P2;Temp;Humidity;BMP_temperature;BMP_pressure;BME280_temperature;BME280_humidity;BME280_pressure;Samples;Min_cycle;Max_cycle;Signal;HPM_P1;HPM_P2
2021/03/08 00:02:02;;;;;;;20.20;11.97;;;;;;;1.17;82.19;100979.88;5084142;28;20047;-72
2021/03/08 00:04:27;;;;;;;16.30;10.80;;;;;;;1.18;82.28;100966.94;5082737;28;20036;-72
2021/03/08 00:06:52;;;;;;;17.20;11.33;;;;;;;1.14;82.75;100970.22;5083376;28;20119;-73
2021/03/08 00:09:18;;;;;;;21.23;12.75;;;;;;;1.13;82.65;100965.88;5086244;28;20197;-72
2021/03/08 00:11:43;;;;;;;19.00;12.33;;;;;;;1.16;82.65;100967.72;5085853;28;20077;-72
2021/03/08 00:14:08;;;;;;;18.90;12.82;;;;;;;1.10;82.64;100963.13;5083005;28;20025;-73
2021/03/08 00:16:34;;;;;;;18.87;12.20;;;;;;;1.15;82.45;100969.38;5082358;28;20403;-72
2021/03/08 00:18:59;;;;;;;19.77;13.20;;;;;;;1.17;82.58;100970.34;5084286;28;20109;-72
2021/03/08 00:21:24;;;;;;;18.42;12.10;;;;;;;1.19;82.55;100975.63;5086047;28;20107;-73
2021/03/08 00:23:50;;;;;;;17.00;11.83;;;;;;;1.22;82.97;100963.59;5085499;28;20063;-73
2021/03/08 00:26:15;;;;;;;20.70;14.27;;;;;;;1.20;82.88;100977.38;5081967;28;20428;-72
2021/03/08 00:28:40;;;;;;;20.65;12.23;;;;;;;1.24;82.38;100979.28;5082363;28;20123;-73
2021/03/08 00:31:06;;;;;;;19.80;12.43;;;;;;;1.25;82.02;100976.72;5084917;28;20040;-72
2021/03/08 00:33:31;;;;;;;19.90;12.50;;;;;;;1.26;82.01;100981.13;5085771;28;20079;-71
2021/03/08 00:35:57;;;;;;;16.48;11.40;;;;;;;1.20;82.09;100975.66;5082688;28;20039;-73
2021/03/08 00:38:22;;;;;;;17.08;12.32;;;;;;;1.22;82.55;100974.00;5082263;28;20036;-73
2021/03/08 00:40:47;;;;;;;19.13;12.27;;;;;;;1.24;82.29;100972.38;5080896;28;20060;-72
2021/03/08 00:43:13;;;;;;;19.67;13.00;;;;;;;1.26;81.72;100975.91;5085090;28;20032;-72
2021/03/08 00:45:38;;;;;;;18.65;13.07;;;;;;;1.26;82.00;100973.31;5085272;28;20037;-73
2021/03/08 00:48:06;;;;;;;21.65;12.40;;;;;;;1.29;81.91;100972.53;5081483;28;20401;-73
2021/03/08 00:50:36;;;;;;;19.00;12.40;;;;;;;1.26;82.48;100970.72;5080601;28;20056;-73
2021/03/08 00:53:02;;;;;;;19.70;13.13;;;;;;;1.28;82.55;100971.66;5081179;28;20036;-72
2021/03/08 00:55:33;;;;;;;19.92;12.55;;;;;;;1.33;82.49;100970.94;5082732;28;20028;-72
2021/03/08 00:58:00;;;;;;;18.07;12.43;;;;;;;1.38;82.46;100978.09;5082416;28;20033;-72
2021/03/08 01:00:27;;;;;;;18.57;12.03;;;;;;;1.37;81.64;100970.25;5083935;28;20509;-73
2021/03/08 01:03:00;;;;;;;17.88;12.30;;;;;;;1.37;81.79;100972.84;5083312;28;20043;-72
2021/03/08 01:05:27;;;;;;;17.13;12.13;;;;;;;1.37;81.62;100968.53;5081450;28;20379;-72
2021/03/08 01:07:54;;;;;;;17.35;13.07;;;;;;;1.33;82.64;100965.75;5081283;28;20082;-71
2021/03/08 01:10:29;;;;;;;16.52;11.35;;;;;;;1.41;82.45;100966.91;5083504;28;20036;-72
2021/03/08 01:12:56;;;;;;;20.73;13.30;;;;;;;1.44;81.69;100967.03;5082601;28;20063;-73
2021/03/08 01:15:23;;;;;;;20.63;12.38;;;;;;;1.43;81.59;100957.47;5081129;28;20086;-72
2021/03/08 01:17:49;;;;;;;21.83;11.98;;;;;;;1.41;82.25;100964.31;5081864;28;20036;-72
2021/03/08 01:20:16;;;;;;;21.10;13.07;;;;;;;1.41;81.39;100965.19;5083613;28;20032;-72
2021/03/08 01:22:43;;;;;;;19.80;12.30;;;;;;;1.43;82.08;100962.66;5084839;28;20745;-73
2021/03/08 01:25:17;;;;;;;19.70;12.88;;;;;;;1.48;81.42;100961.13;5081298;28;20073;-72
2021/03/08 01:27:42;;;;;;;19.88;12.82;;;;;;;1.50;81.49;100965.56;5081285;28;20597;-73
2021/03/08 01:30:10;;;;;;;20.58;12.68;;;;;;;1.45;81.55;100956.69;5084135;28;20032;-73
2021/03/08 01:32:36;;;;;;;20.70;11.80;;;;;;;1.48;81.85;100950.72;5083468;28;20079;-72
2021/03/08 01:35:01;;;;;;;20.70;12.25;;;;;;;1.49;81.85;100947.28;5082183;28;20063;-72
2021/03/08 01:37:27;;;;;;;19.45;12.18;;;;;;;1.52;81.50;100947.41;5081043;28;20040;-72
2021/03/08 01:39:52;;;;;;;22.02;13.48;;;;;;;1.54;81.10;100946.59;5081733;28;20039;-72
2021/03/08 01:42:17;;;;;;;17.40;12.25;;;;;;;1.57;81.34;100955.34;5084482;28;20043;-72
2021/03/08 01:44:43;;;;;;;19.25;12.50;;;;;;;1.54;81.06;100938.81;5084265;28;20036;-73
2021/03/08 01:47:08;;;;;;;20.98;12.30;;;;;;;1.52;81.72;100942.22;5080985;28;20029;-73
2021/03/08 01:49:33;;;;;;;20.00;13.40;;;;;;;1.53;80.96;100939.66;5080676;28;20040;-72
2021/03/08 01:51:59;;;;;;;19.42;13.07;;;;;;;1.59;81.12;100943.31;5082384;28;20029;-73
2021/03/08 01:54:24;;;;;;;19.85;12.93;;;;;;;1.57;81.44;100932.81;5083347;28;20549;-73
2021/03/08 01:56:51;;;;;;;20.93;13.77;;;;;;;1.54;81.42;100946.59;5083338;28;20024;-72
2021/03/08 01:59:16;;;;;;;20.67;12.35;;;;;;;1.58;81.29;100945.03;5079409;28;20510;-73
2021/03/08 02:01:42;;;;;;;20.88;12.57;;;;;;;1.45;81.66;100950.59;5079259;28;20036;-73
2021/03/08 02:04:11;;;;;;;17.98;12.43;;;;;;;1.44;81.74;100954.00;5083845;28;20032;-73
2021/03/08 02:06:36;;;;;;;18.05;12.52;;;;;;;1.40;81.67;100947.81;5083632;28;20032;-72
2021/03/08 02:09:03;;;;;;;22.40;14.70;;;;;;;1.37;81.89;100941.63;5081690;28;20040;-73
2021/03/08 02:11:31;;;;;;;19.23;13.30;;;;;;;1.37;82.47;100942.50;5080299;28;20121;-73
2021/03/08 02:14:16;;;;;;;18.83;12.85;;;;;;;1.43;82.41;100940.13;5080529;28;20433;-73
2021/03/08 02:16:53;;;;;;;23.40;15.52;;;;;;;1.42;82.72;100940.97;5083383;28;20106;-73
2021/03/08 02:19:36;;;;;;;22.60;14.35;;;;;;;1.44;81.98;100943.59;5073040;28;20044;-72
2021/03/08 02:22:20;;;;;;;23.30;14.02;;;;;;;1.42;81.97;100945.28;5081095;28;20082;-72
2021/03/08 02:25:07;;;;;;;24.67;14.43;;;;;;;1.46;82.01;100948.03;5083607;28;20068;-72
2021/03/08 02:27:41;;;;;;;20.85;13.82;;;;;;;1.48;82.00;100945.50;5073629;28;20033;-73
2021/03/08 02:30:25;;;;;;;23.85;15.82;;;;;;;1.43;82.46;100942.72;5082667;28;20047;-73
2021/03/08 02:32:54;;;;;;;23.88;13.95;;;;;;;1.51;82.10;100951.69;5082982;28;20055;-73
2021/03/08 02:35:23;;;;;;;19.58;12.60;;;;;;;1.60;81.70;100950.25;5079647;28;20067;-73
2021/03/08 02:37:55;;;;;;;19.35;13.55;;;;;;;1.59;81.91;100954.59;5080170;28;20027;-73
2021/03/08 02:40:26;;;;;;;22.60;13.43;;;;;;;1.45;82.16;100958.41;5083374;28;20027;-72
2021/03/08 02:42:55;;;;;;;29.02;15.77;;;;;;;1.51;82.28;100958.63;5081397;28;20460;-72
2021/03/08 02:45:24;;;;;;;24.52;14.63;;;;;;;1.59;82.02;100958.91;5079515;28;20123;-72
2021/03/08 02:47:51;;;;;;;22.45;14.38;;;;;;;1.64;81.54;100958.25;5078882;28;20078;-73
2021/03/08 02:50:19;;;;;;;22.67;14.65;;;;;;;1.59;81.83;100961.50;5083163;28;20567;-72
2021/03/08 02:53:04;;;;;;;22.80;14.65;;;;;;;1.61;82.44;100960.75;5083159;28;20547;-73
2021/03/08 02:55:37;;;;;;;22.38;14.23;;;;;;;1.69;81.58;100956.69;5073565;28;20510;-73
2021/03/08 02:58:05;;;;;;;22.55;14.23;;;;;;;1.69;81.90;100956.69;5081927;28;20032;-72
2021/03/08 03:00:31;;;;;;;26.30;15.68;;;;;;;1.72;81.86;100964.63;5083042;28;20040;-72
2021/03/08 03:02:59;;;;;;;25.92;16.10;;;;;;;1.69;81.43;100968.84;5084313;28;20039;-72
2021/03/08 03:05:25;;;;;;;28.88;16.45;;;;;;;1.62;81.87;100967.72;5082640;28;20482;-73
2021/03/08 03:07:53;;;;;;;25.27;15.30;;;;;;;1.62;82.42;100967.72;5082506;28;20123;-73
2021/03/08 03:10:24;;;;;;;27.48;16.02;;;;;;;1.65;81.86;100967.84;5079385;28;20028;-73
2021/03/08 03:12:50;;;;;;;28.73;17.40;;;;;;;1.62;82.79;100967.72;5079878;28;20082;-72
2021/03/08 03:15:16;;;;;;;26.23;15.88;;;;;;;1.64;82.02;100960.84;5082718;28;20495;-73
2021/03/08 03:17:43;;;;;;;26.63;17.60;;;;;;;1.66;82.72;100967.00;5082983;28;20036;-72
2021/03/08 03:20:13;;;;;;;25.95;16.15;;;;;;;1.70;81.77;100966.31;5079914;28;20040;-73
2021/03/08 03:22:43;;;;;;;28.88;17.95;;;;;;;1.69;82.12;100972.31;5079488;28;20250;-73
2021/03/08 03:25:10;;;;;;;27.15;17.10;;;;;;;1.69;82.53;100971.44;5081992;28;20047;-72
2021/03/08 03:27:36;;;;;;;27.75;18.23;;;;;;;1.65;82.71;100980.84;5082724;28;20035;-73
2021/03/08 03:30:04;;;;;;;28.52;17.02;;;;;;;1.73;82.33;100970.72;5079368;28;20055;-72
2021/03/08 03:32:29;;;;;;;38.15;19.90;;;;;;;1.69;82.78;100967.09;5079284;28;20126;-73
2021/03/08 03:34:55;;;;;;;35.00;20.27;;;;;;;1.73;82.83;100970.72;5076876;28;20079;-73
2021/03/08 03:37:23;;;;;;;29.35;18.30;;;;;;;1.83;82.17;100972.81;5074060;28;20036;-72
2021/03/08 03:39:49;;;;;;;32.13;20.38;;;;;;;1.83;81.95;100979.72;5085522;28;20038;-73
2021/03/08 03:42:16;;;;;;;29.42;17.98;;;;;;;1.79;82.57;100983.97;5081454;28;20085;-73
2021/03/08 03:44:42;;;;;;;25.67;15.70;;;;;;;1.80;82.41;100983.13;5082691;28;20070;-73
2021/03/08 03:47:08;;;;;;;24.00;16.35;;;;;;;1.80;82.57;100980.50;5074648;28;20055;-73
2021/03/08 03:49:33;;;;;;;22.80;15.30;;;;;;;1.85;81.76;100978.97;5088792;28;20032;-73
2021/03/08 03:51:59;;;;;;;30.67;17.40;;;;;;;1.86;82.42;100980.75;5080789;28;20040;-73
2021/03/08 03:54:24;;;;;;;26.33;17.23;;;;;;;1.94;81.64;100986.25;5079114;28;20028;-72
2021/03/08 03:56:56;;;;;;;30.85;17.63;;;;;;;1.92;81.99;100991.38;5078128;28;20421;-72
2021/03/08 03:59:48;;;;;;;27.87;16.87;;;;;;;1.91;81.86;100983.50;5082580;28;20032;-73
2021/03/08 04:02:46;;;;;;;26.48;16.23;;;;;;;1.94;81.10;100994.03;5057658;28;20710;-72
2021/03/08 04:05:20;;;;;;;25.00;16.90;;;;;;;1.91;81.71;100993.91;5068863;28;20052;-73
2021/03/08 04:07:46;;;;;;;27.38;17.63;;;;;;;1.95;82.17;100996.69;5079089;28;20384;-72
2021/03/08 04:10:12;;;;;;;28.15;16.35;;;;;;;1.99;82.10;100995.06;5082150;28;20036;-73
2021/03/08 04:12:42;;;;;;;31.38;21.00;;;;;;;2.04;81.36;100997.84;5073133;28;20036;-73
2021/03/08 04:15:09;;;;;;;36.38;23.63;;;;;;;2.07;81.68;100996.25;5086970;28;20032;-72
2021/03/08 04:17:37;;;;;;;37.33;25.23;;;;;;;2.15;81.40;100996.53;5082800;28;20414;-72
2021/03/08 04:20:05;;;;;;;44.97;25.52;;;;;;;2.22;81.29;101000.22;5083489;28;20061;-73
2021/03/08 04:22:32;;;;;;;39.08;22.55;;;;;;;2.24;81.20;101003.78;5082445;28;20063;-72
2021/03/08 04:24:59;;;;;;;34.00;18.27;;;;;;;2.25;80.71;101010.75;5083823;28;20036;-72
2021/03/08 04:27:27;;;;;;;34.03;19.52;;;;;;;2.23;81.07;101018.53;5085812;28;20032;-72
2021/03/08 04:29:54;;;;;;;31.67;19.27;;;;;;;2.17;80.77;101024.41;5084914;28;20068;-73
2021/03/08 04:32:21;;;;;;;29.00;18.08;;;;;;;2.06;81.07;101020.50;5082321;28;20040;-73
2021/03/08 04:34:47;;;;;;;29.95;19.00;;;;;;;2.07;81.61;101018.78;5082251;28;20043;-73
2021/03/08 04:37:13;;;;;;;31.33;20.65;;;;;;;2.10;80.97;101022.41;5073669;28;20032;-73
2021/03/08 04:39:39;;;;;;;30.45;18.58;;;;;;;2.03;81.76;101033.41;5082024;28;20040;-73
2021/03/08 04:42:07;;;;;;;36.60;20.38;;;;;;;2.06;81.50;101023.09;5083363;28;20029;-73
2021/03/08 04:44:33;;;;;;;31.30;19.10;;;;;;;2.14;81.27;101024.25;5079028;22;20133;-69
2021/03/08 04:47:01;;;;;;;28.77;17.33;;;;;;;2.21;81.29;101032.31;5013332;28;20382;-69
2021/03/08 04:49:26;;;;;;;27.95;18.33;;;;;;;2.22;81.46;101036.69;5013699;28;20065;-69
2021/03/08 04:51:52;;;;;;;32.30;19.27;;;;;;;2.12;81.21;101033.75;5013816;28;20515;-69
2021/03/08 04:54:19;;;;;;;34.78;20.58;;;;;;;2.10;81.73;101031.94;5008029;28;20507;-69
2021/03/08 04:56:47;;;;;;;29.63;19.58;;;;;;;2.17;82.12;101034.81;4994068;28;20041;-70
2021/03/08 04:59:13;;;;;;;29.63;18.83;;;;;;;2.22;81.10;101047.09;4986172;28;20142;-70
2021/03/08 05:01:40;;;;;;;38.92;21.90;;;;;;;2.14;81.22;101037.28;4994249;28;20117;-70
2021/03/08 05:04:08;;;;;;;31.98;18.85;;;;;;;2.17;81.07;101045.22;4994021;28;20722;-69
2021/03/08 05:06:38;;;;;;;33.20;19.00;;;;;;;2.23;81.48;101059.28;4993901;28;20165;-70
2021/03/08 05:09:04;;;;;;;30.77;18.75;;;;;;;2.28;81.24;101053.44;4994003;28;20642;-70
2021/03/08 05:11:33;;;;;;;40.55;22.48;;;;;;;2.19;81.32;101058.28;4993980;28;20129;-70
2021/03/08 05:14:04;;;;;;;37.30;23.27;;;;;;;2.16;81.37;101059.06;4993895;28;20189;-69
2021/03/08 05:16:31;;;;;;;37.72;21.60;;;;;;;2.14;81.76;101065.94;4993775;28;20042;-69
2021/03/08 05:18:58;;;;;;;32.97;20.15;;;;;;;2.16;81.40;101066.00;4993794;28;20035;-69
2021/03/08 05:21:25;;;;;;;42.92;26.15;;;;;;;2.04;81.70;101063.81;4993809;28;20034;-69
2021/03/08 05:23:51;;;;;;;34.70;21.27;;;;;;;2.08;81.32;101070.91;4993721;28;20509;-69
2021/03/08 05:26:16;;;;;;;36.13;23.00;;;;;;;2.03;81.74;101067.25;4993514;28;20038;-69
2021/03/08 05:28:43;;;;;;;38.38;22.25;;;;;;;2.09;81.31;101072.69;4993661;28;20037;-69
2021/03/08 05:31:10;;;;;;;36.25;20.33;;;;;;;2.16;81.42;101069.47;4993518;28;20093;-69
2021/03/08 05:33:38;;;;;;;29.63;19.05;;;;;;;2.13;81.27;101066.78;4993649;28;20038;-68
2021/03/08 05:36:07;;;;;;;33.60;22.75;;;;;;;2.07;81.36;101069.16;4993110;28;20046;-68
2021/03/08 05:38:33;;;;;;;39.67;22.58;;;;;;;2.10;81.14;101068.38;4993762;28;20075;-68
2021/03/08 05:41:24;;;;;;;34.60;21.35;;;;;;;2.05;81.92;101070.81;4993312;28;20030;-68
2021/03/08 05:43:53;;;;;;;35.88;22.75;;;;;;;2.08;81.11;101070.03;4993196;28;20052;-68
2021/03/08 05:46:43;;;;;;;33.58;21.50;;;;;;;2.10;81.67;101077.09;4993118;28;20521;-69
2021/03/08 05:49:46;;;;;;;36.38;22.42;;;;;;;2.08;81.01;101081.34;4993270;28;20038;-68
2021/03/08 05:52:21;;;;;;;37.83;23.83;;;;;;;1.97;81.89;101080.94;4993181;28;20053;-68
2021/03/08 05:55:05;;;;;;;36.80;22.80;;;;;;;1.99;81.49;101086.19;4992992;28;20038;-69
2021/03/08 05:57:57;;;;;;;36.38;22.55;;;;;;;1.92;81.57;101089.41;4981429;28;20049;-69
2021/03/08 06:00:54;;;;;;;36.90;22.15;;;;;;;1.89;82.37;101094.50;4982762;28;20560;-69
2021/03/08 06:03:32;;;;;;;43.58;23.63;;;;;;;1.85;81.88;101103.00;4986916;28;20042;-68
2021/03/08 06:06:25;;;;;;;33.75;19.25;;;;;;;1.77;82.12;101099.25;4991824;28;20516;-69
2021/03/08 06:09:02;;;;;;;38.22;21.75;;;;;;;1.70;81.98;101099.00;4992785;28;20559;-68
2021/03/08 06:11:32;;;;;;;37.53;20.10;;;;;;;1.71;81.85;101100.78;4992822;28;20121;-68
2021/03/08 06:13:58;;;;;;;33.78;20.05;;;;;;;1.67;82.53;101101.47;4992590;28;20035;-69
2021/03/08 06:16:36;;;;;;;33.55;19.63;;;;;;;1.63;82.16;101115.19;4992556;28;20038;-68
2021/03/08 06:19:04;;;;;;;34.42;21.38;;;;;;;1.59;82.93;101115.91;4992628;28;20038;-69
2021/03/08 06:21:34;;;;;;;37.58;22.08;;;;;;;1.62;83.27;101110.81;4992781;28;20196;-68
2021/03/08 06:24:01;;;;;;;35.20;20.50;;;;;;;1.73;82.73;101113.84;4992516;28;20038;-69
2021/03/08 06:26:28;;;;;;;31.92;18.95;;;;;;;1.75;82.49;101122.59;4992666;28;20413;-69
2021/03/08 06:28:55;;;;;;;31.08;17.77;;;;;;;1.87;82.27;101125.66;4992531;28;20029;-69
2021/03/08 06:31:21;;;;;;;30.05;18.95;;;;;;;1.97;82.06;101139.94;4992446;28;20034;-69
2021/03/08 06:33:46;;;;;;;32.75;21.20;;;;;;;2.14;81.06;101137.97;4992387;28;20038;-69
2021/03/08 06:36:12;;;;;;;33.95;20.00;;;;;;;2.25;80.99;101134.03;4992105;28;20408;-69
2021/03/08 06:38:38;;;;;;;28.58;18.27;;;;;;;2.32;80.63;101143.84;4992311;28;20034;-68
2021/03/08 06:41:06;;;;;;;32.00;19.00;;;;;;;2.31;79.91;101152.50;4991929;28;20108;-69
2021/03/08 06:43:32;;;;;;;28.08;18.35;;;;;;;2.30;79.58;101153.31;4992397;28;20065;-69
2021/03/08 06:45:57;;;;;;;24.23;16.65;;;;;;;2.25;79.41;101157.47;4991945;28;20034;-69
2021/03/08 06:48:23;;;;;;;31.48;17.33;;;;;;;2.19;79.67;101159.84;4992284;28;20145;-69
2021/03/08 06:51:08;;;;;;;22.85;15.85;;;;;;;2.16;79.68;101163.22;4991116;28;20041;-68
2021/03/08 06:53:33;;;;;;;24.13;15.32;;;;;;;2.13;78.98;101160.50;4994450;28;20049;-69
2021/03/08 06:56:19;;;;;;;25.60;15.13;;;;;;;2.05;78.51;101169.75;4991880;28;20500;-68
2021/03/08 06:59:01;;;;;;;23.35;15.05;;;;;;;2.11;79.17;101166.50;4992250;28;20033;-68
2021/03/08 07:01:29;;;;;;;20.35;12.07;;;;;;;2.07;78.19;101175.00;4986025;28;20038;-69
2021/03/08 07:03:55;;;;;;;21.23;13.50;;;;;;;2.08;78.49;101175.06;4992044;28;20572;-68
2021/03/08 07:06:21;;;;;;;21.77;13.45;;;;;;;2.07;77.91;101177.59;4991813;28;20042;-69
2021/03/08 07:08:47;;;;;;;22.33;13.95;;;;;;;2.03;78.50;101179.22;4992116;28;20038;-68
2021/03/08 07:11:22;;;;;;;23.23;15.00;;;;;;;2.00;78.55;101191.25;4991868;28;20531;-69
2021/03/08 07:13:51;;;;;;;25.05;14.73;;;;;;;1.91;78.66;101187.44;4990641;28;20038;-68
2021/03/08 07:16:17;;;;;;;24.77;13.40;;;;;;;1.88;79.13;101194.22;4991656;28;20034;-69
2021/03/08 07:18:43;;;;;;;20.05;13.77;;;;;;;1.99;78.77;101200.75;4991993;28;20060;-68
2021/03/08 07:21:11;;;;;;;21.75;13.18;;;;;;;2.09;78.49;101197.66;4991874;28;20030;-69
2021/03/08 07:23:36;;;;;;;21.40;11.57;;;;;;;2.28;78.70;101204.50;4991998;28;20088;-69
2021/03/08 07:26:10;;;;;;;18.38;11.25;;;;;;;2.48;77.79;101206.94;4991528;28;20034;-69
2021/03/08 07:28:35;;;;;;;21.20;12.63;;;;;;;2.75;76.99;101207.97;4990690;28;20432;-68
2021/03/08 07:31:01;;;;;;;20.83;12.90;;;;;;;2.87;75.67;101212.75;4991686;28;20110;-67
2021/03/08 07:33:26;;;;;;;21.80;13.88;;;;;;;2.75;76.55;101209.69;4991783;28;20035;-67
2021/03/08 07:35:53;;;;;;;19.20;13.07;;;;;;;2.73;75.75;101209.63;4991493;28;20073;-67
2021/03/08 07:38:36;;;;;;;21.95;13.43;;;;;;;2.69;75.17;101210.34;4991764;28;20034;-67
2021/03/08 07:41:07;;;;;;;;;;;;;;;2.41;74.38;101214.56;4992103;28;20031;-67
2021/03/08 07:43:33;;;;;;;23.48;13.77;;;;;;;2.38;76.53;101223.94;4991776;28;19920;-67
2021/03/08 07:45:58;;;;;;;23.38;13.75;;;;;;;2.37;76.72;101220.47;4991338;28;20106;-67
2021/03/08 07:48:23;;;;;;;24.02;14.27;;;;;;;2.34;77.16;101229.88;4991634;28;20038;-67
2021/03/08 07:50:51;;;;;;;21.20;12.40;;;;;;;2.38;76.96;101236.97;4991527;28;20280;-67
2021/03/08 07:53:30;;;;;;;20.40;12.02;;;;;;;2.37;76.60;101232.59;4993327;28;20386;-67
2021/03/08 07:55:59;;;;;;;17.17;11.13;;;;;;;2.29;75.35;101226.22;4995102;28;20038;-67
2021/03/08 07:58:28;;;;;;;21.13;11.07;;;;;;;2.19;76.04;101241.47;4995286;28;20041;-67
2021/03/08 08:00:54;;;;;;;21.67;12.43;;;;;;;2.24;76.09;101240.78;4995220;28;20041;-67
2021/03/08 08:03:19;;;;;;;18.25;10.52;;;;;;;2.26;76.10;101236.53;4995242;28;20121;-67
2021/03/08 08:05:45;;;;;;;19.17;11.05;;;;;;;2.38;76.40;101247.38;4985597;28;20061;-67
2021/03/08 08:08:13;;;;;;;15.98;10.65;;;;;;;2.45;74.93;101244.19;4995112;28;20057;-67
2021/03/08 08:10:39;;;;;;;16.73;10.68;;;;;;;2.45;74.32;101248.53;4995090;28;20035;-67
2021/03/08 08:13:07;;;;;;;16.90;10.25;;;;;;;2.52;74.52;101250.53;4995128;28;20050;-67
2021/03/08 08:15:34;;;;;;;16.58;10.90;;;;;;;2.49;73.98;101256.53;4994683;28;20034;-67
2021/03/08 08:18:00;;;;;;;18.92;11.38;;;;;;;2.47;74.08;101254.69;4995059;28;20050;-67
2021/03/08 08:20:28;;;;;;;17.33;10.80;;;;;;;2.37;73.69;101256.06;4994766;28;20030;-67
2021/03/08 08:22:58;;;;;;;18.05;11.23;;;;;;;2.33;74.35;101247.25;4994947;28;20034;-67
2021/03/08 08:25:25;;;;;;;15.85;10.00;;;;;;;2.32;74.56;101254.97;4993460;28;20057;-67
2021/03/08 08:27:51;;;;;;;18.48;10.77;;;;;;;2.30;74.79;101256.63;4992973;28;20057;-67
2021/03/08 08:30:17;;;;;;;17.63;11.18;;;;;;;2.25;75.21;101248.63;4992712;28;20038;-67
2021/03/08 08:32:48;;;;;;;20.85;11.05;;;;;;;2.23;74.95;101258.13;4992947;28;20127;-67
2021/03/08 08:35:19;;;;;;;19.60;9.95;;;;;;;2.19;74.49;101246.69;4984565;28;20730;-67
2021/03/08 08:38:07;;;;;;;15.27;8.80;;;;;;;2.25;74.45;101245.16;4991383;28;20030;-67
2021/03/08 08:40:37;;;;;;;12.57;7.97;;;;;;;2.33;73.40;101247.25;4990184;28;20080;-67
2021/03/08 08:43:15;;;;;;;15.45;8.23;;;;;;;2.44;73.47;101246.72;4992619;28;20038;-67
2021/03/08 08:45:41;;;;;;;15.82;8.52;;;;;;;2.56;73.39;101248.09;4994027;28;20058;-67
2021/03/08 08:48:07;;;;;;;14.02;7.82;;;;;;;2.63;72.33;101246.63;4994411;28;20034;-67
2021/03/08 08:51:02;;;;;;;13.95;7.65;;;;;;;2.82;70.91;101256.00;4994317;28;20034;-67
2021/03/08 08:53:30;;;;;;;16.10;9.65;;;;;;;3.18;72.43;101255.56;4982226;28;20440;-67
2021/03/08 08:55:56;;;;;;;26.13;12.63;;;;;;;3.55;71.28;101252.50;4993826;28;20049;-67
2021/03/08 08:58:25;;;;;;;24.85;12.73;;;;;;;3.86;70.74;101254.41;4994261;28;20411;-67
2021/03/08 09:01:09;;;;;;;18.95;9.77;;;;;;;4.09;67.51;101260.38;4994167;28;20489;-67
2021/03/08 09:03:59;;;;;;;12.13;6.97;;;;;;;4.17;66.69;101260.63;4993837;28;20448;-67
2021/03/08 09:06:54;;;;;;;16.00;9.88;;;;;;;4.48;67.15;101257.22;4987283;28;20030;-67
2021/03/08 09:09:31;;;;;;;20.10;11.40;;;;;;;4.75;67.06;101257.16;4986887;28;20038;-67
2021/03/08 09:12:01;;;;;;;17.38;10.98;;;;;;;4.84;65.54;101257.41;4993875;28;20042;-67
2021/03/08 09:14:26;;;;;;;14.00;7.10;;;;;;;4.85;64.47;101260.94;4993903;28;20516;-67
2021/03/08 09:17:10;;;;;;;10.57;5.43;;;;;;;4.67;62.77;101263.88;4993510;28;20091;-67
2021/03/08 09:19:36;;;;;;;10.48;5.60;;;;;;;4.56;63.03;101266.19;4993704;28;20053;-67
2021/03/08 09:22:20;;;;;;;9.20;5.10;;;;;;;4.43;62.18;101268.34;4993562;28;20049;-67
2021/03/08 09:24:46;;;;;;;10.07;5.13;;;;;;;4.20;60.47;101276.38;4993655;28;20045;-67
2021/03/08 09:27:22;;;;;;;10.55;5.03;;;;;;;4.05;61.13;101273.28;4993225;28;20027;-67
2021/03/08 09:29:49;;;;;;;8.30;4.28;;;;;;;4.09;61.09;101278.66;4993545;28;20041;-67
2021/03/08 09:32:15;;;;;;;10.48;4.35;;;;;;;4.03;59.20;101273.22;4993529;28;20034;-67
2021/03/08 09:34:40;;;;;;;7.75;4.07;;;;;;;4.10;57.50;101274.31;4993552;28;20133;-67
2021/03/08 09:37:06;;;;;;;6.82;3.53;;;;;;;4.19;57.52;101271.97;4993278;28;20124;-67
2021/03/08 09:39:32;;;;;;;9.20;5.35;;;;;;;4.43;58.87;101270.97;4993319;28;20046;-67
2021/03/08 09:42:00;;;;;;;9.10;4.53;;;;;;;4.80;59.28;101276.47;4993305;28;20042;-67
2021/03/08 09:44:44;;;;;;;7.78;3.53;;;;;;;5.20;57.48;101266.25;4993121;28;20038;-67
2021/03/08 09:47:11;;;;;;;7.95;3.90;;;;;;;5.60;54.87;101275.16;4993111;28;20034;-67
2021/03/08 09:49:54;;;;;;;6.97;3.13;;;;;;;5.61;51.75;101275.22;4993419;28;20468;-67
2021/03/08 09:52:34;;;;;;;7.10;2.65;;;;;;;5.56;49.47;101271.59;4984407;28;20054;-67
2021/03/08 09:54:59;;;;;;;5.30;1.92;;;;;;;5.65;51.39;101274.44;4992063;28;20125;-67
2021/03/08 09:57:36;;;;;;;6.80;3.10;;;;;;;5.84;49.62;101277.50;4992958;28;20069;-67
2021/03/08 10:00:06;;;;;;;6.32;2.40;;;;;;;5.90;49.09;101273.34;4993093;28;20038;-67
2021/03/08 10:02:31;;;;;;;5.85;2.55;;;;;;;5.92;50.71;101279.50;4993145;28;20121;-67
2021/03/08 10:04:58;;;;;;;3.53;2.08;;;;;;;5.92;49.88;101276.88;4992804;28;20050;-68
2021/03/08 10:07:24;;;;;;;6.78;2.22;;;;;;;5.80;48.81;101276.56;4992853;28;20039;-67
2021/03/08 10:10:06;;;;;;;4.65;2.20;;;;;;;5.76;49.68;101284.28;4992864;28;20064;-67
2021/03/08 10:12:32;;;;;;;4.53;1.83;;;;;;;5.86;50.71;101281.06;4992865;28;20049;-67
2021/03/08 10:15:01;;;;;;;6.07;1.45;;;;;;;5.99;48.44;101283.16;4992371;28;20121;-68
2021/03/08 10:17:27;;;;;;;5.43;2.33;;;;;;;6.25;48.41;101283.81;4992409;28;20114;-67
2021/03/08 10:19:57;;;;;;;3.33;1.45;;;;;;;6.25;46.84;101285.53;4992730;28;20045;-67
2021/03/08 10:22:40;;;;;;;4.93;1.77;;;;;;;6.15;45.14;101274.81;4992738;28;20033;-67
2021/03/08 10:25:24;;;;;;;3.83;1.75;;;;;;;6.05;44.73;101277.19;4992485;28;20046;-68
2021/03/08 10:27:56;;;;;;;4.57;1.50;;;;;;;6.08;45.85;101274.66;4992540;28;20117;-67
2021/03/08 10:30:23;;;;;;;4.30;1.50;;;;;;;6.23;46.00;101282.00;4992593;28;20045;-67
2021/03/08 10:32:52;;;;;;;5.13;1.55;;;;;;;6.32;45.64;101282.22;4992574;28;20042;-67
2021/03/08 10:35:17;;;;;;;4.80;1.50;;;;;;;6.53;46.79;101277.47;4992245;28;20038;-67
2021/03/08 10:37:44;;;;;;;5.60;1.75;;;;;;;6.35;43.67;101287.53;4992090;28;20077;-67
2021/03/08 10:40:10;;;;;;;3.45;1.48;;;;;;;5.70;43.71;101291.16;4992184;28;20520;-67
2021/03/08 10:42:37;;;;;;;3.17;1.40;;;;;;;5.61;43.73;101288.31;4992474;28;20040;-67
2021/03/08 10:45:06;;;;;;;3.40;1.27;;;;;;;5.38;44.01;101292.94;4991889;28;20523;-67
2021/03/08 10:47:31;;;;;;;5.05;1.73;;;;;;;5.15;45.10;101294.03;4992171;28;20038;-67
2021/03/08 10:49:57;;;;;;;3.30;1.65;;;;;;;5.17;45.13;101290.59;4992028;28;20034;-67
2021/03/08 10:52:23;;;;;;;4.00;1.52;;;;;;;5.02;44.53;101287.56;4992004;28;20115;-67
2021/03/08 10:54:49;;;;;;;5.68;1.67;;;;;;;5.06;44.97;101289.44;4991686;28;20026;-67
2021/03/08 10:57:15;;;;;;;3.38;1.70;;;;;;;4.99;44.84;101277.00;4990606;28;20560;-67
2021/03/08 10:59:52;;;;;;;4.10;1.60;;;;;;;5.10;44.87;101279.91;4985939;28;20038;-67
2021/03/08 11:02:18;;;;;;;4.30;1.17;;;;;;;5.20;44.57;101284.56;4993169;28;20026;-67
2021/03/08 11:04:48;;;;;;;4.13;1.20;;;;;;;5.40;45.48;101285.13;4992028;28;20519;-67
2021/03/08 11:07:14;;;;;;;4.28;1.00;;;;;;;5.39;40.62;101286.84;4983346;28;20042;-67
2021/03/08 11:09:45;;;;;;;3.08;0.95;;;;;;;5.26;40.42;101282.13;4992061;28;20448;-67
2021/03/08 11:12:18;;;;;;;2.78;1.02;;;;;;;5.18;41.12;101273.16;4991888;28;20046;-67
2021/03/08 11:14:48;;;;;;;3.20;0.90;;;;;;;5.23;41.88;101274.19;4991818;28;20030;-67
2021/03/08 11:17:14;;;;;;;4.80;1.00;;;;;;;5.37;43.30;101272.84;4975476;28;20191;-67
2021/03/08 11:19:39;;;;;;;1.80;0.68;;;;;;;5.52;42.70;101279.31;4991672;28;20109;-67
2021/03/08 11:22:12;;;;;;;3.85;1.27;;;;;;;5.59;41.31;101281.25;4991838;28;20039;-67
2021/03/08 11:24:49;;;;;;;6.47;1.63;;;;;;;5.63;41.93;101284.00;4991672;28;20089;-68
2021/03/08 11:27:20;;;;;;;3.47;1.15;;;;;;;5.75;41.83;101282.53;4985316;28;20038;-68
2021/03/08 11:30:01;;;;;;;3.38;1.40;;;;;;;5.87;41.50;101282.84;4995797;28;20049;-67
2021/03/08 11:32:29;;;;;;;3.17;0.90;;;;;;;5.85;39.05;101279.31;4989277;28;20038;-67
2021/03/08 11:34:54;;;;;;;4.55;1.20;;;;;;;5.84;37.20;101278.44;4995888;28;20041;-67